createdAt,value
2022-12-04T00:01:10.733Z,101909.56
2022-12-04T00:03:37.403Z,101914.31
2022-12-04T00:06:12.611Z,101916.53
2022-12-04T00:08:39.213Z,101923.91
2022-12-04T00:11:07.009Z,101917.09
2022-12-04T00:13:34.062Z,101911.69
2022-12-04T00:16:00.794Z,101912.44
2022-12-04T00:18:27.826Z,101920.91
2022-12-04T00:20:54.399Z,101915.94
2022-12-04T00:23:20.991Z,101912.34
2022-12-04T00:25:48.634Z,101920.25
2022-12-04T00:28:19.004Z,101918.78
2022-12-04T00:30:46.096Z,101915.69
2022-12-04T00:33:13.595Z,101917.72
2022-12-04T00:35:40.552Z,101920.81
2022-12-04T00:38:06.851Z,101915.69
2022-12-04T00:40:33.155Z,101915.13
2022-12-04T00:42:59.523Z,101908.69
2022-12-04T00:45:25.892Z,101906.91
2022-12-04T00:47:52.244Z,101913.72
2022-12-04T00:50:18.654Z,101910.72
2022-12-04T00:52:44.961Z,101913.28
2022-12-04T00:55:11.270Z,101914.53
2022-12-04T00:57:37.563Z,101914.53
2022-12-04T01:00:05.998Z,101911.13
2022-12-04T01:02:32.432Z,101908.25
2022-12-04T01:05:01.371Z,101906.91
2022-12-04T01:07:27.981Z,101900.06
2022-12-04T01:09:54.602Z,101909.84
2022-12-04T01:12:21.271Z,101906.44
2022-12-04T01:14:47.700Z,101905.47
2022-12-04T01:17:14.061Z,101908.25
2022-12-04T01:19:40.427Z,101911.59
2022-12-04T01:22:06.747Z,101914.97
2022-12-04T01:24:33.135Z,101914.38
2022-12-04T01:26:59.581Z,101906.84
2022-12-04T01:29:25.933Z,101907.50
2022-12-04T01:31:52.408Z,101910.97
2022-12-04T01:34:18.766Z,101905.09
2022-12-04T01:36:45.115Z,101911.16
2022-12-04T01:39:12.022Z,101904.88
2022-12-04T01:41:38.339Z,101908.84
2022-12-04T01:44:18.510Z,101900.56
2022-12-04T01:46:47.401Z,101908.41
2022-12-04T01:49:36.298Z,101898.00
2022-12-04T01:52:09.198Z,101900.63
2022-12-04T01:54:39.714Z,101903.91
2022-12-04T01:57:16.823Z,101900.50
2022-12-04T01:59:47.699Z,101904.50
2022-12-04T02:02:22.257Z,101896.09
2022-12-04T02:04:49.342Z,101908.13
2022-12-04T02:07:15.630Z,101905.31
2022-12-04T02:09:42.723Z,101909.84
2022-12-04T02:12:19.837Z,101901.31
2022-12-04T02:15:01.386Z,101904.59
2022-12-04T02:17:35.935Z,101905.69
2022-12-04T02:20:18.699Z,101900.28
2022-12-04T02:23:20.684Z,101895.22
2022-12-04T02:26:26.266Z,101907.44
2022-12-04T02:29:14.516Z,101885.66
2022-12-04T02:31:50.635Z,101896.53
2022-12-04T02:34:25.471Z,101896.53
2022-12-04T02:37:02.803Z,101883.00
2022-12-04T02:39:44.266Z,101888.50
2022-12-04T02:42:16.560Z,101879.88
2022-12-04T02:44:47.326Z,101879.06
2022-12-04T02:47:17.354Z,101879.28
2022-12-04T02:49:48.495Z,101880.28
2022-12-04T02:52:20.651Z,101875.16
2022-12-04T02:54:51.437Z,101873.16
2022-12-04T02:57:25.910Z,101883.81
2022-12-04T02:59:55.905Z,101882.06
2022-12-04T03:02:35.612Z,101884.09
2022-12-04T03:05:12.668Z,101885.63
2022-12-04T03:07:58.694Z,101888.84
2022-12-04T03:10:30.003Z,101884.25
2022-12-04T03:13:02.839Z,101887.81
2022-12-04T03:15:42.295Z,101888.94
2022-12-04T03:18:17.835Z,101892.13
2022-12-04T03:20:48.818Z,101882.34
2022-12-04T03:23:20.688Z,101883.41
2022-12-04T03:26:01.314Z,101885.69
2022-12-04T03:28:50.876Z,101880.84
2022-12-04T03:31:29.625Z,101881.00
2022-12-04T03:34:02.794Z,101890.03
2022-12-04T03:36:34.823Z,101891.97
2022-12-04T03:39:26.517Z,101884.38
2022-12-04T03:42:08.341Z,101883.72
2022-12-04T03:44:48.779Z,101885.69
2022-12-04T03:47:19.567Z,101885.97
2022-12-04T03:49:51.275Z,101878.50
2022-12-04T03:52:27.481Z,101880.84
2022-12-04T03:55:03.824Z,101875.72
2022-12-04T03:57:38.395Z,101873.03
2022-12-04T04:00:16.366Z,101875.72
2022-12-04T04:02:53.291Z,101867.25
2022-12-04T04:05:20.789Z,101880.13
2022-12-04T04:07:56.550Z,101879.69
2022-12-04T04:10:26.410Z,101876.28
2022-12-04T04:13:20.509Z,101878.69
2022-12-04T04:16:10.764Z,101862.47
2022-12-04T04:18:57.211Z,101868.72
2022-12-04T04:21:48.209Z,101870.41
2022-12-04T04:24:25.845Z,101868.59
2022-12-04T04:26:54.038Z,101874.44
2022-12-04T04:29:21.081Z,101870.47
2022-12-04T04:31:47.284Z,101871.56
2022-12-04T04:34:24.749Z,101873.31
2022-12-04T04:37:06.460Z,101859.72
2022-12-04T04:39:48.716Z,101863.97
2022-12-04T04:42:22.838Z,101863.88
2022-12-04T04:44:55.259Z,101869.09
2022-12-04T04:47:42.300Z,101868.00
2022-12-04T04:50:11.529Z,101876.47
2022-12-04T04:52:40.977Z,101866.34
2022-12-04T04:55:08.387Z,101874.00
2022-12-04T04:57:36.897Z,101868.19
2022-12-04T05:00:08.207Z,101874.03
2022-12-04T05:02:34.619Z,101871.44
2022-12-04T05:05:01.140Z,101869.59
2022-12-04T05:07:27.565Z,101872.16
2022-12-04T05:09:54.223Z,101879.94
2022-12-04T05:12:20.841Z,101880.72
2022-12-04T05:14:48.307Z,101882.41
2022-12-04T05:17:14.891Z,101878.44
2022-12-04T05:19:54.009Z,101886.47
2022-12-04T05:22:23.867Z,101878.78
2022-12-04T05:24:50.265Z,101886.53
2022-12-04T05:27:16.599Z,101890.03
2022-12-04T05:29:43.225Z,101885.75
2022-12-04T05:32:09.687Z,101885.78
2022-12-04T05:34:36.021Z,101890.59
2022-12-04T05:37:02.361Z,101878.94
2022-12-04T05:39:28.781Z,101883.91
2022-12-04T05:41:55.139Z,101885.94
2022-12-04T05:44:21.430Z,101882.59
2022-12-04T05:46:47.817Z,101885.19
2022-12-04T05:49:14.186Z,101878.78
2022-12-04T05:51:40.540Z,101880.53
2022-12-04T05:54:06.932Z,101878.06
2022-12-04T05:56:33.214Z,101877.91
2022-12-04T05:58:59.517Z,101875.50
2022-12-04T06:01:25.868Z,101883.44
2022-12-04T06:03:52.235Z,101878.34
2022-12-04T06:06:22.443Z,101874.75
2022-12-04T06:08:51.107Z,101883.31
2022-12-04T06:11:21.184Z,101877.19
2022-12-04T06:13:47.535Z,101876.28
2022-12-04T06:16:19.358Z,101879.66
2022-12-04T06:18:49.640Z,101874.75
2022-12-04T06:21:16.177Z,101881.50
2022-12-04T06:23:42.434Z,101887.75
2022-12-04T06:26:09.227Z,101893.00
2022-12-04T06:28:36.709Z,101890.44
2022-12-04T06:31:14.236Z,101896.53
2022-12-04T06:33:40.765Z,101900.84
2022-12-04T06:36:10.621Z,101889.94
2022-12-04T06:38:37.579Z,101889.72
2022-12-04T06:41:09.021Z,101895.31
2022-12-04T06:43:35.390Z,101898.97
2022-12-04T06:46:15.185Z,101900.91
2022-12-04T06:48:42.286Z,101893.97
2022-12-04T06:51:17.426Z,101894.66
2022-12-04T06:53:44.112Z,101900.31
2022-12-04T06:56:14.108Z,101893.25
2022-12-04T06:58:40.523Z,101899.91
2022-12-04T07:01:14.674Z,101904.94
2022-12-04T07:03:43.614Z,101907.28
2022-12-04T07:06:15.403Z,101912.09
2022-12-04T07:08:43.317Z,101902.16
2022-12-04T07:11:09.716Z,101905.44
2022-12-04T07:13:36.095Z,101911.34
2022-12-04T07:16:05.130Z,101907.19
2022-12-04T07:18:32.258Z,101905.59
2022-12-04T07:20:59.401Z,101910.97
2022-12-04T07:23:25.936Z,101904.84
2022-12-04T07:25:52.380Z,101905.63
2022-12-04T07:28:18.683Z,101911.63
2022-12-04T07:30:44.977Z,101907.59
2022-12-04T07:33:11.261Z,101910.44
2022-12-04T07:35:37.589Z,101897.06
2022-12-04T07:38:03.951Z,101908.75
2022-12-04T07:40:30.553Z,101909.66
2022-12-04T07:42:56.878Z,101907.41
2022-12-04T07:45:23.207Z,101919.00
2022-12-04T07:47:49.492Z,101915.56
2022-12-04T07:50:15.990Z,101916.47
2022-12-04T07:52:42.319Z,101925.13
2022-12-04T07:55:09.154Z,101922.78
2022-12-04T07:57:35.488Z,101925.66
2022-12-04T08:00:01.858Z,101920.41
2022-12-04T08:02:28.225Z,101921.09
2022-12-04T08:04:54.613Z,101920.34
2022-12-04T08:07:21.026Z,101919.66
2022-12-04T08:09:47.380Z,101919.94
2022-12-04T08:12:13.696Z,101915.41
2022-12-04T08:14:40.065Z,101925.66
2022-12-04T08:17:06.429Z,101926.16
2022-12-04T08:19:32.768Z,101925.19
2022-12-04T08:21:59.081Z,101925.34
2022-12-04T08:24:25.400Z,101924.03
2022-12-04T08:26:51.735Z,101920.00
2022-12-04T08:29:18.043Z,101910.50
2022-12-04T08:31:44.430Z,101910.44
2022-12-04T08:34:10.835Z,101908.00
2022-12-04T08:36:37.137Z,101920.34
2022-12-04T08:39:04.692Z,101908.94
2022-12-04T08:41:31.124Z,101917.72
2022-12-04T08:43:57.932Z,101917.78
2022-12-04T08:46:26.470Z,101917.22
2022-12-04T08:48:54.418Z,101918.78
2022-12-04T08:51:23.340Z,101918.09
2022-12-04T08:54:03.900Z,101920.03
2022-12-04T08:56:31.348Z,101912.47
2022-12-04T08:58:58.897Z,101914.88
2022-12-04T09:01:26.451Z,101915.53
2022-12-04T09:03:53.313Z,101910.53
2022-12-04T09:06:20.270Z,101915.91
2022-12-04T09:08:46.860Z,101915.19
2022-12-04T09:11:19.056Z,101921.31
2022-12-04T09:13:46.238Z,101927.47
2022-12-04T09:16:16.862Z,101920.78
2022-12-04T09:18:44.076Z,101912.59
2022-12-04T09:21:12.711Z,101915.53
2022-12-04T09:23:39.714Z,101920.91
2022-12-04T09:26:15.788Z,101914.09
2022-12-04T09:28:42.096Z,101904.03
2022-12-04T09:31:08.519Z,101902.25
2022-12-04T09:33:34.865Z,101895.50
2022-12-04T09:36:02.782Z,101897.19
2022-12-04T09:38:29.965Z,101906.81
2022-12-04T09:41:16.665Z,101899.06
2022-12-04T09:44:01.039Z,101896.84
2022-12-04T09:46:42.759Z,101902.72
2022-12-04T09:49:17.328Z,101886.69
2022-12-04T09:51:44.367Z,101897.84
2022-12-04T09:54:17.037Z,101885.09
2022-12-04T09:56:51.360Z,101891.31
2022-12-04T09:59:23.913Z,101895.16
2022-12-04T10:02:15.529Z,101885.84
2022-12-04T10:04:41.948Z,101888.53
2022-12-04T10:07:38.487Z,101891.97
2022-12-04T10:10:39.222Z,101887.38
2022-12-04T10:13:41.966Z,101889.94
2022-12-04T10:16:38.457Z,101884.84
2022-12-04T10:19:22.049Z,101882.25
2022-12-04T10:22:25.657Z,101879.81
2022-12-04T10:24:56.294Z,101882.50
2022-12-04T10:27:32.216Z,101884.72
2022-12-04T10:30:04.381Z,101880.53
2022-12-04T10:32:33.739Z,101874.56
2022-12-04T10:35:15.506Z,101884.97
2022-12-04T10:37:43.365Z,101872.91
2022-12-04T10:40:23.148Z,101875.81
2022-12-04T10:43:00.654Z,101875.75
2022-12-04T10:45:27.204Z,101868.69
2022-12-04T10:47:53.751Z,101868.00
2022-12-04T10:50:23.370Z,101865.59
2022-12-04T10:52:50.645Z,101866.59
2022-12-04T10:55:29.396Z,101859.81
2022-12-04T10:57:55.780Z,101866.88
2022-12-04T11:00:30.000Z,101859.06
2022-12-04T11:03:02.778Z,101867.00
2022-12-04T11:05:42.022Z,101855.22
2022-12-04T11:08:23.627Z,101859.63
2022-12-04T11:10:59.092Z,101860.34
2022-12-04T11:13:25.905Z,101856.19
2022-12-04T11:15:55.041Z,101850.28
2022-12-04T11:18:27.475Z,101854.19
2022-12-04T11:20:57.412Z,101851.72
2022-12-04T11:23:24.342Z,101845.81
2022-12-04T11:25:54.123Z,101846.75
2022-12-04T11:28:44.882Z,101840.78
2022-12-04T11:31:17.602Z,101837.16
2022-12-04T11:33:48.696Z,101834.81
2022-12-04T11:36:26.305Z,101832.25
2022-12-04T11:39:02.616Z,101839.91
2022-12-04T11:41:32.053Z,101832.13
2022-12-04T11:44:00.571Z,101832.13
2022-12-04T11:46:30.724Z,101825.25
2022-12-04T11:48:57.477Z,101830.50
2022-12-04T11:51:37.439Z,101835.00
2022-12-04T11:54:29.813Z,101823.28
2022-12-04T11:56:59.067Z,101824.38
2022-12-04T11:59:40.629Z,101816.47
2022-12-04T12:02:41.161Z,101814.09
2022-12-04T12:05:22.685Z,101806.97
2022-12-04T12:08:07.584Z,101815.03
2022-12-04T12:10:45.610Z,101817.59
2022-12-04T12:13:27.429Z,101810.78
2022-12-04T12:16:04.539Z,101808.47
2022-12-04T12:18:50.942Z,101808.59
2022-12-04T12:21:47.661Z,101805.16
2022-12-04T12:24:49.873Z,101808.47
2022-12-04T12:27:55.334Z,101813.63
2022-12-04T12:30:23.678Z,101812.91
2022-12-04T12:33:03.728Z,101810.09
2022-12-04T12:35:35.775Z,101807.06
2022-12-04T12:38:26.143Z,101807.16
2022-12-04T12:40:58.966Z,101804.69
2022-12-04T12:43:31.506Z,101806.69
2022-12-04T12:46:25.663Z,101806.63
2022-12-04T12:49:11.931Z,101799.09
2022-12-04T12:51:54.989Z,101800.66
2022-12-04T12:54:53.316Z,101789.56
2022-12-04T12:57:26.736Z,101782.97
2022-12-04T12:59:58.457Z,101783.06
2022-12-04T13:02:33.627Z,101779.59
2022-12-04T13:05:10.210Z,101774.34
2022-12-04T13:07:58.726Z,101779.59
2022-12-04T13:10:41.384Z,101774.69
2022-12-04T13:13:29.817Z,101768.44
2022-12-04T13:16:06.460Z,101765.34
2022-12-04T13:18:41.194Z,101755.91
2022-12-04T13:21:10.440Z,101751.63
2022-12-04T13:24:14.537Z,101751.81
2022-12-04T13:26:51.106Z,101750.66
2022-12-04T13:29:37.745Z,101750.84
2022-12-04T13:32:42.631Z,101744.25
2022-12-04T13:35:22.500Z,101734.94
2022-12-04T13:38:09.814Z,101738.34
2022-12-04T13:40:51.272Z,101727.13
2022-12-04T13:43:20.824Z,101727.13
2022-12-04T13:45:50.520Z,101738.91
2022-12-04T13:48:33.456Z,101731.31
2022-12-04T13:51:22.172Z,101733.16
2022-12-04T13:54:01.157Z,101734.16
2022-12-04T13:56:29.673Z,101726.31
2022-12-04T13:59:20.266Z,101731.38
2022-12-04T14:01:50.223Z,101734.81
2022-12-04T14:04:31.098Z,101735.72
2022-12-04T14:07:00.433Z,101741.88
2022-12-04T14:09:30.710Z,101739.31
2022-12-04T14:12:05.261Z,101748.84
2022-12-04T14:14:59.325Z,101748.75
2022-12-04T14:17:33.039Z,101740.25
2022-12-04T14:20:10.050Z,101746.25
2022-12-04T14:22:37.261Z,101758.75
2022-12-04T14:25:20.025Z,101761.66
2022-12-04T14:27:51.691Z,101763.31
2022-12-04T14:30:33.232Z,101757.19
2022-12-04T14:33:08.853Z,101757.47
2022-12-04T14:35:50.043Z,101763.19
2022-12-04T14:38:22.167Z,101750.31
2022-12-04T14:40:51.500Z,101756.34
2022-12-04T14:43:23.200Z,101757.97
2022-12-04T14:45:56.596Z,101762.25
2022-12-04T14:49:00.203Z,101759.69
2022-12-04T14:51:34.355Z,101758.63
2022-12-04T14:54:19.059Z,101766.34
2022-12-04T14:56:59.962Z,101760.16
2022-12-04T14:59:41.436Z,101764.34
2022-12-04T15:02:19.695Z,101766.22
2022-12-04T15:04:48.637Z,101762.06
2022-12-04T15:07:33.487Z,101763.03
2022-12-04T15:10:21.326Z,101760.47
2022-12-04T15:12:51.232Z,101755.28
2022-12-04T15:15:27.603Z,101756.25
2022-12-04T15:18:09.192Z,101754.50
2022-12-04T15:20:55.839Z,101756.41
2022-12-04T15:23:34.495Z,101751.88
2022-12-04T15:26:06.309Z,101751.69
2022-12-04T15:28:35.581Z,101741.47
2022-12-04T15:31:06.570Z,101744.03
2022-12-04T15:33:37.270Z,101748.50
2022-12-04T15:36:08.662Z,101751.19
2022-12-04T15:38:35.988Z,101745.16
2022-12-04T15:41:02.433Z,101747.75
2022-12-04T15:43:31.860Z,101747.06
2022-12-04T15:45:58.746Z,101748.09
2022-12-04T15:48:31.459Z,101754.63
2022-12-04T15:51:01.902Z,101747.03
2022-12-04T15:53:32.830Z,101737.53
2022-12-04T15:56:03.910Z,101740.19
2022-12-04T15:58:33.320Z,101746.28
2022-12-04T16:01:03.454Z,101741.22
2022-12-04T16:03:33.488Z,101748.16
2022-12-04T16:06:27.708Z,101736.13
2022-12-04T16:09:16.887Z,101729.97
2022-12-04T16:11:43.900Z,101739.59
2022-12-04T16:14:18.310Z,101736.06
2022-12-04T16:16:50.032Z,101740.53
2022-12-04T16:19:34.828Z,101722.59
2022-12-04T16:22:03.694Z,101731.28
2022-12-04T16:24:30.565Z,101727.81
2022-12-04T16:27:00.203Z,101723.44
2022-12-04T16:29:26.995Z,101718.22
2022-12-04T16:31:57.095Z,101717.53
2022-12-04T16:34:27.546Z,101727.81
2022-12-04T16:36:53.835Z,101726.03
2022-12-04T16:39:20.201Z,101718.38
2022-12-04T16:41:46.589Z,101727.88
2022-12-04T16:44:16.972Z,101730.47
2022-12-04T16:46:44.273Z,101722.94
2022-12-04T16:49:12.687Z,101726.28
2022-12-04T16:51:44.710Z,101734.00
2022-12-04T16:54:13.108Z,101727.97
2022-12-04T16:56:39.485Z,101734.00
2022-12-04T16:59:11.590Z,101732.34
2022-12-04T17:01:43.900Z,101734.03
2022-12-04T17:04:10.649Z,101734.94
2022-12-04T17:06:37.082Z,101740.25
2022-12-04T17:09:04.120Z,101743.50
2022-12-04T17:11:30.596Z,101741.81
2022-12-04T17:13:56.983Z,101742.66
2022-12-04T17:16:24.819Z,101753.06
2022-12-04T17:18:51.973Z,101752.19
2022-12-04T17:21:18.555Z,101752.19
2022-12-04T17:23:44.993Z,101750.53
2022-12-04T17:26:13.997Z,101753.13
2022-12-04T17:28:40.884Z,101751.44
2022-12-04T17:31:17.085Z,101760.09
2022-12-04T17:33:44.541Z,101760.19
2022-12-04T17:36:13.629Z,101761.91
2022-12-04T17:38:43.050Z,101760.16
2022-12-04T17:41:13.712Z,101770.56
2022-12-04T17:43:41.355Z,101764.50
2022-12-04T17:46:13.014Z,101767.06
2022-12-04T17:48:39.983Z,101760.19
2022-12-04T17:51:12.039Z,101771.41
2022-12-04T17:53:39.317Z,101772.47
2022-12-04T17:56:08.097Z,101775.91
2022-12-04T17:58:35.683Z,101775.13
2022-12-04T18:01:04.788Z,101768.91
2022-12-04T18:03:31.556Z,101774.06
2022-12-04T18:05:58.137Z,101768.88
2022-12-04T18:08:28.655Z,101764.63
2022-12-04T18:10:56.834Z,101771.34
2022-12-04T18:13:23.195Z,101765.19
2022-12-04T18:15:49.478Z,101767.00
2022-12-04T18:18:15.800Z,101761.91
2022-12-04T18:20:42.188Z,101756.75
2022-12-04T18:23:08.918Z,101768.84
2022-12-04T18:25:35.205Z,101758.53
2022-12-04T18:28:01.596Z,101763.72
2022-12-04T18:30:28.162Z,101767.06
2022-12-04T18:32:55.066Z,101765.41
2022-12-04T18:35:21.400Z,101768.75
2022-12-04T18:37:47.881Z,101768.69
2022-12-04T18:40:14.609Z,101772.22
2022-12-04T18:42:40.908Z,101770.56
2022-12-04T18:45:07.789Z,101768.84
2022-12-04T18:47:34.204Z,101773.16
2022-12-04T18:50:00.788Z,101768.84
2022-12-04T18:52:27.211Z,101773.28
2022-12-04T18:54:53.812Z,101776.75
2022-12-04T18:57:20.156Z,101775.78
2022-12-04T18:59:48.067Z,101774.94
2022-12-04T19:02:14.410Z,101780.22
2022-12-04T19:04:40.723Z,101774.00
2022-12-04T19:07:07.139Z,101777.34
2022-12-04T19:10:09.482Z,101785.94
2022-12-04T19:12:19.795Z,101779.94
2022-12-04T19:14:46.129Z,101785.09
2022-12-04T19:17:12.422Z,101785.34
2022-12-04T19:19:38.870Z,101773.16
2022-12-04T19:22:05.154Z,101786.78
2022-12-04T19:24:31.572Z,101778.28
2022-12-04T19:26:58.063Z,101769.63
2022-12-04T19:29:24.365Z,101779.94
2022-12-04T19:31:54.649Z,101769.63
2022-12-04T19:34:24.035Z,101770.50
2022-12-04T19:36:50.987Z,101779.25
2022-12-04T19:39:17.266Z,101777.56
2022-12-04T19:41:43.593Z,101774.00
2022-12-04T19:44:46.327Z,101778.22
2022-12-04T19:46:56.475Z,101775.56
2022-12-04T19:49:22.841Z,101780.88
2022-12-04T19:51:49.418Z,101782.50
2022-12-04T19:54:16.343Z,101777.38
2022-12-04T19:56:46.191Z,101777.44
2022-12-04T19:59:12.769Z,101771.50
2022-12-04T20:01:39.205Z,101777.56
2022-12-04T20:04:07.360Z,101774.97
2022-12-04T20:06:39.537Z,101778.38
2022-12-04T20:09:09.060Z,101767.03
2022-12-04T20:11:36.372Z,101760.94
2022-12-04T20:14:04.539Z,101761.84
2022-12-04T20:16:33.121Z,101757.59
2022-12-04T20:19:00.719Z,101756.69
2022-12-04T20:21:30.454Z,101755.97
2022-12-04T20:23:59.837Z,101757.75
2022-12-04T20:26:28.788Z,101756.84
2022-12-04T20:28:56.710Z,101755.19
2022-12-04T20:31:44.526Z,101749.03
2022-12-04T20:34:14.839Z,101742.28
2022-12-04T20:36:43.242Z,101746.38
2022-12-04T20:39:11.082Z,101745.56
2022-12-04T20:41:39.522Z,101743.06
2022-12-04T20:44:08.465Z,101741.13
2022-12-04T20:46:39.713Z,101734.19
2022-12-04T20:49:10.015Z,101741.97
2022-12-04T20:51:39.334Z,101744.56
2022-12-04T20:54:07.131Z,101739.47
2022-12-04T20:56:36.613Z,101746.53
2022-12-04T20:59:15.412Z,101738.72
2022-12-04T21:01:42.561Z,101741.31
2022-12-04T21:04:09.328Z,101740.50
2022-12-04T21:06:38.350Z,101743.88
2022-12-04T21:09:19.432Z,101743.16
2022-12-04T21:11:48.280Z,101729.50
2022-12-04T21:14:38.806Z,101739.06
2022-12-04T21:17:07.322Z,101738.34
2022-12-04T21:19:33.672Z,101738.34
2022-12-04T21:21:59.969Z,101734.66
2022-12-04T21:24:27.800Z,101730.19
2022-12-04T21:26:55.411Z,101731.06
2022-12-04T21:29:22.573Z,101730.34
2022-12-04T21:31:48.932Z,101731.97
2022-12-04T21:34:17.018Z,101726.75
2022-12-04T21:36:43.636Z,101724.25
2022-12-04T21:39:10.887Z,101722.31
2022-12-04T21:41:55.853Z,101724.03
2022-12-04T21:44:22.443Z,101728.34
2022-12-04T21:46:49.846Z,101724.25
2022-12-04T21:49:17.656Z,101723.16
2022-12-04T21:51:59.726Z,101728.56
2022-12-04T21:54:27.839Z,101726.75
2022-12-04T21:56:55.295Z,101725.84
2022-12-04T21:59:22.758Z,101724.25
2022-12-04T22:01:49.174Z,101714.75
2022-12-04T22:04:15.795Z,101704.44
2022-12-04T22:06:42.495Z,101713.94
2022-12-04T22:09:10.945Z,101709.56
2022-12-04T22:11:38.010Z,101715.53
2022-12-04T22:14:04.586Z,101702.53
2022-12-04T22:16:32.837Z,101708.63
2022-12-04T22:19:00.986Z,101709.50
2022-12-04T22:21:28.330Z,101701.00
2022-12-04T22:23:59.591Z,101706.28
2022-12-04T22:26:27.839Z,101709.66
2022-12-04T22:28:54.892Z,101707.78
2022-12-04T22:31:23.797Z,101713.88
2022-12-04T22:33:52.895Z,101709.66
2022-12-04T22:36:21.616Z,101714.81
2022-12-04T22:39:08.309Z,101715.66
2022-12-04T22:41:35.089Z,101722.53
2022-12-04T22:44:01.550Z,101719.19
2022-12-04T22:46:27.960Z,101710.53
2022-12-04T22:48:54.539Z,101722.53
2022-12-04T22:51:21.860Z,101714.81
2022-12-04T22:53:51.467Z,101713.88
2022-12-04T22:56:23.755Z,101711.47
2022-12-04T22:58:50.967Z,101714.91
2022-12-04T23:01:25.799Z,101709.72
2022-12-04T23:03:52.627Z,101707.16
2022-12-04T23:06:21.301Z,101700.38
2022-12-04T23:08:48.871Z,101698.63
2022-12-04T23:11:19.407Z,101690.75
2022-12-04T23:13:57.006Z,101691.53
2022-12-04T23:16:24.847Z,101691.59
2022-12-04T23:18:52.098Z,101687.47
2022-12-04T23:21:20.533Z,101693.41
2022-12-04T23:23:47.978Z,101688.41
2022-12-04T23:26:17.309Z,101686.69
2022-12-04T23:28:43.619Z,101690.91
2022-12-04T23:31:11.014Z,101693.34
2022-12-04T23:33:37.930Z,101690.91
2022-12-04T23:36:05.887Z,101686.59
2022-12-04T23:38:35.540Z,101695.22
2022-12-04T23:41:22.394Z,101693.56
2022-12-04T23:43:49.675Z,101691.06
2022-12-04T23:46:19.612Z,101695.34
2022-12-04T23:48:47.186Z,101690.19
2022-12-04T23:51:18.622Z,101693.63
2022-12-04T23:53:45.599Z,101685.91
2022-12-04T23:56:18.725Z,101683.16
2022-12-04T23:58:47.250Z,101671.09
